createdAt,value
2019-05-25T00:01:12.004Z,99159.36
2019-05-25T00:03:44.979Z,99159.36
2019-05-25T00:06:18.237Z,99160.22
2019-05-25T00:08:51.610Z,99160.22
2019-05-25T00:11:24.943Z,99153.97
2019-05-25T00:13:57.945Z,99156.98
2019-05-25T00:16:31.117Z,99159.03
2019-05-25T00:19:04.355Z,99145.69
2019-05-25T00:21:37.416Z,99150.31
2019-05-25T00:24:12.580Z,99154.56
2019-05-25T00:26:45.204Z,99147.84
2019-05-25T00:29:18.321Z,99155.55
2019-05-25T00:31:51.388Z,99149.68
2019-05-25T00:34:24.415Z,99150.80
2019-05-25T00:36:57.525Z,99150.95
2019-05-25T00:39:30.581Z,99149.05
2019-05-25T00:42:03.725Z,99162.09
2019-05-25T00:44:36.976Z,99160.20
2019-05-25T00:47:10.024Z,99163.59
2019-05-25T00:49:43.126Z,99162.52
2019-05-25T00:52:16.131Z,99165.81
2019-05-25T00:54:49.193Z,99168.27
2019-05-25T00:57:22.227Z,99159.49
2019-05-25T00:59:55.386Z,99163.27
2019-05-25T01:02:28.431Z,99169.11
2019-05-25T01:05:01.554Z,99170.58
2019-05-25T01:07:34.546Z,99172.07
2019-05-25T01:10:07.816Z,99171.02
2019-05-25T01:12:40.840Z,99158.60
2019-05-25T01:15:14.233Z,99162.82
2019-05-25T01:17:47.189Z,99163.47
2019-05-25T01:20:20.281Z,99162.98
2019-05-25T01:22:53.339Z,99161.92
2019-05-25T01:25:26.353Z,99154.34
2019-05-25T01:27:59.455Z,99154.95
2019-05-25T01:30:32.614Z,99151.72
2019-05-25T01:33:05.806Z,99152.94
2019-05-25T01:35:38.865Z,99156.34
2019-05-25T01:38:11.880Z,99153.58
2019-05-25T01:40:44.953Z,99160.69
2019-05-25T01:43:18.013Z,99160.11
2019-05-25T01:45:51.215Z,99165.76
2019-05-25T01:48:24.239Z,99157.80
2019-05-25T01:50:57.291Z,99161.30
2019-05-25T01:53:30.285Z,99161.06
2019-05-25T01:56:03.381Z,99155.97
2019-05-25T01:58:36.516Z,99153.69
2019-05-25T02:03:59.716Z,99149.23
2019-05-25T02:06:32.772Z,99150.08
2019-05-25T02:09:06.944Z,99147.42
2019-05-25T02:11:40.451Z,99145.63
2019-05-25T02:14:13.587Z,99140.31
2019-05-25T02:16:46.864Z,99142.12
2019-05-25T02:19:20.007Z,99144.88
2019-05-25T02:21:53.122Z,99145.19
2019-05-25T02:24:26.224Z,99151.69
2019-05-25T02:26:59.379Z,99145.64
2019-05-25T02:29:32.420Z,99155.61
2019-05-25T02:32:05.584Z,99152.34
2019-05-25T02:34:38.644Z,99158.81
2019-05-25T02:37:11.662Z,99152.11
2019-05-25T02:39:44.932Z,99156.06
2019-05-25T02:42:17.951Z,99146.61
2019-05-25T02:44:51.119Z,99147.80
2019-05-25T02:47:24.218Z,99141.20
2019-05-25T02:49:57.266Z,99148.06
2019-05-25T02:52:30.460Z,99147.89
2019-05-25T02:55:03.591Z,99152.64
2019-05-25T02:57:36.779Z,99153.45
2019-05-25T03:00:10.178Z,99153.75
2019-05-25T03:02:43.466Z,99153.98
2019-05-25T03:05:16.876Z,99154.66
2019-05-25T03:07:50.121Z,99155.61
2019-05-25T03:10:23.145Z,99148.44
2019-05-25T03:12:56.788Z,99158.66
2019-05-25T03:15:29.916Z,99156.23
2019-05-25T03:18:03.046Z,99155.11
2019-05-25T03:20:36.208Z,99154.27
2019-05-25T03:23:09.474Z,99159.66
2019-05-25T03:25:49.492Z,99162.88
2019-05-25T03:28:17.636Z,99160.43
2019-05-25T03:30:50.826Z,99161.75
2019-05-25T03:33:24.037Z,99169.13
2019-05-25T03:35:57.181Z,99172.05
2019-05-25T03:38:30.345Z,99170.26
2019-05-25T03:41:03.506Z,99170.08
2019-05-25T03:43:36.633Z,99168.48
2019-05-25T03:46:09.746Z,99169.52
2019-05-25T03:48:42.830Z,99171.42
2019-05-25T03:51:15.844Z,99171.61
2019-05-25T03:53:48.874Z,99161.14
2019-05-25T03:56:22.028Z,99173.73
2019-05-25T03:58:55.152Z,99177.33
2019-05-25T04:01:28.306Z,99178.08
2019-05-25T04:04:01.384Z,99178.94
2019-05-25T04:06:34.419Z,99182.44
2019-05-25T04:09:07.588Z,99183.67
2019-05-25T04:11:40.598Z,99180.17
2019-05-25T04:14:13.700Z,99184.14
2019-05-25T04:16:46.705Z,99188.34
2019-05-25T04:19:19.874Z,99186.27
2019-05-25T04:21:52.968Z,99188.73
2019-05-25T04:24:26.180Z,99199.17
2019-05-25T04:26:59.470Z,99196.98
2019-05-25T04:29:32.570Z,99198.19
2019-05-25T04:32:05.658Z,99191.41
2019-05-25T04:34:38.736Z,99201.16
2019-05-25T04:37:11.912Z,99205.44
2019-05-25T04:39:45.096Z,99199.48
2019-05-25T04:42:18.186Z,99205.78
2019-05-25T04:44:51.291Z,99201.48
2019-05-25T04:47:27.146Z,99199.02
2019-05-25T04:49:59.275Z,99202.00
2019-05-25T04:52:32.516Z,99205.46
2019-05-25T04:55:06.146Z,99213.11
2019-05-25T04:57:39.246Z,99221.09
2019-05-25T05:00:12.720Z,99215.09
2019-05-25T05:02:45.853Z,99225.09
2019-05-25T05:05:18.970Z,99220.23
2019-05-25T05:07:52.195Z,99223.05
2019-05-25T05:10:25.262Z,99214.31
2019-05-25T05:12:58.394Z,99230.87
2019-05-25T05:15:31.666Z,99219.49
2019-05-25T05:18:04.764Z,99225.52
2019-05-25T05:20:37.777Z,99224.36
2019-05-25T05:23:10.850Z,99221.02
2019-05-25T05:25:43.860Z,99225.25
2019-05-25T05:28:16.939Z,99230.08
2019-05-25T05:30:49.940Z,99214.61
2019-05-25T05:33:23.116Z,99225.87
2019-05-25T05:35:56.930Z,99230.83
2019-05-25T05:38:30.432Z,99224.42
2019-05-25T05:41:03.760Z,99235.32
2019-05-25T05:43:38.444Z,99240.88
2019-05-25T05:46:12.886Z,99237.59
2019-05-25T05:48:47.416Z,99244.13
2019-05-25T05:51:21.053Z,99234.91
2019-05-25T05:53:55.170Z,99242.62
2019-05-25T05:56:28.324Z,99242.44
2019-05-25T05:59:01.926Z,99238.09
2019-05-25T06:01:35.054Z,99235.33
2019-05-25T06:04:08.172Z,99242.38
2019-05-25T06:06:41.288Z,99252.69
2019-05-25T06:09:14.394Z,99249.88
2019-05-25T06:11:47.532Z,99257.31
2019-05-25T06:14:21.874Z,99255.59
2019-05-25T06:16:54.956Z,99259.44
2019-05-25T06:19:28.138Z,99265.10
2019-05-25T06:22:01.345Z,99264.01
2019-05-25T06:24:34.682Z,99260.25
2019-05-25T06:27:07.845Z,99262.11
2019-05-25T06:29:41.056Z,99272.80
2019-05-25T06:32:14.222Z,99274.35
2019-05-25T06:34:47.336Z,99267.77
2019-05-25T06:37:20.606Z,99282.47
2019-05-25T06:39:53.863Z,99277.92
2019-05-25T06:42:27.046Z,99282.41
2019-05-25T06:45:00.194Z,99291.50
2019-05-25T06:47:33.330Z,99293.66
2019-05-25T06:50:07.816Z,99279.59
2019-05-25T06:52:40.834Z,99289.59
2019-05-25T06:55:14.200Z,99300.17
2019-05-25T06:57:47.362Z,99307.25
2019-05-25T07:00:20.693Z,99311.14
2019-05-25T07:02:53.962Z,99302.52
2019-05-25T07:05:27.806Z,99309.16
2019-05-25T07:08:01.214Z,99312.41
2019-05-25T07:10:34.410Z,99313.48
2019-05-25T07:13:07.524Z,99317.04
2019-05-25T07:15:40.621Z,99314.44
2019-05-25T07:18:13.614Z,99318.98
2019-05-25T07:20:46.962Z,99314.31
2019-05-25T07:23:20.034Z,99325.60
2019-05-25T07:25:53.550Z,99323.78
2019-05-25T07:28:26.632Z,99327.19
2019-05-25T07:31:00.125Z,99325.64
2019-05-25T07:33:33.418Z,99321.92
2019-05-25T07:36:10.337Z,99325.54
2019-05-25T07:38:43.476Z,99332.03
2019-05-25T07:41:16.938Z,99335.75
2019-05-25T07:43:50.122Z,99341.44
2019-05-25T07:46:23.307Z,99342.61
2019-05-25T07:48:56.477Z,99344.98
2019-05-25T07:51:29.632Z,99345.09
2019-05-25T07:54:02.872Z,99340.46
2019-05-25T07:56:36.056Z,99345.23
2019-05-25T07:59:09.288Z,99351.02
2019-05-25T08:01:42.755Z,99353.34
2019-05-25T08:04:15.956Z,99354.30
2019-05-25T08:06:49.138Z,99352.05
2019-05-25T08:09:22.352Z,99358.22
2019-05-25T08:11:55.440Z,99364.17
2019-05-25T08:14:28.562Z,99362.89
2019-05-25T08:17:01.866Z,99364.47
2019-05-25T08:19:35.092Z,99357.58
2019-05-25T08:22:08.416Z,99369.39
2019-05-25T08:24:41.504Z,99370.00
2019-05-25T08:27:14.747Z,99370.32
2019-05-25T08:29:47.974Z,99372.78
2019-05-25T08:32:21.072Z,99373.27
2019-05-25T08:34:54.547Z,99371.64
2019-05-25T08:37:27.902Z,99373.73
2019-05-25T08:40:01.200Z,99380.42
2019-05-25T08:42:34.770Z,99379.84
2019-05-25T08:45:09.540Z,99391.19
2019-05-25T08:47:43.243Z,99388.62
2019-05-25T08:50:16.690Z,99390.75
2019-05-25T08:52:50.009Z,99391.36
2019-05-25T08:55:23.722Z,99390.60
2019-05-25T08:57:57.142Z,99385.55
2019-05-25T09:00:30.518Z,99396.12
2019-05-25T09:03:08.400Z,99397.03
2019-05-25T09:05:41.183Z,99401.55
2019-05-25T09:08:14.505Z,99399.14
2019-05-25T09:10:47.607Z,99401.03
2019-05-25T09:13:20.814Z,99400.59
2019-05-25T09:15:54.143Z,99407.03
2019-05-25T09:18:27.312Z,99401.14
2019-05-25T09:21:00.433Z,99408.95
2019-05-25T09:23:35.252Z,99404.09
2019-05-25T09:26:08.703Z,99409.13
2019-05-25T09:28:41.858Z,99410.94
2019-05-25T09:31:15.229Z,99416.97
2019-05-25T09:33:48.365Z,99418.26
2019-05-25T09:36:21.736Z,99415.05
2019-05-25T09:38:54.917Z,99417.38
2019-05-25T09:41:28.190Z,99416.04
2019-05-25T09:44:01.828Z,99416.89
2019-05-25T09:46:35.119Z,99422.70
2019-05-25T09:49:08.141Z,99426.75
2019-05-25T09:51:41.435Z,99422.16
2019-05-25T09:54:15.308Z,99431.09
2019-05-25T09:56:48.536Z,99427.09
2019-05-25T09:59:21.656Z,99415.88
2019-05-25T10:01:55.152Z,99413.50
2019-05-25T10:04:28.230Z,99412.41
2019-05-25T10:07:01.355Z,99423.19
2019-05-25T10:09:34.326Z,99427.81
2019-05-25T10:12:07.393Z,99428.55
2019-05-25T10:14:40.403Z,99426.25
2019-05-25T10:17:13.404Z,99431.31
2019-05-25T10:19:46.471Z,99431.66
2019-05-25T10:22:19.526Z,99423.30
2019-05-25T10:24:54.066Z,99429.48
2019-05-25T10:27:27.126Z,99420.65
2019-05-25T10:30:00.146Z,99425.01
2019-05-25T10:32:33.184Z,99423.41
2019-05-25T10:35:07.074Z,99424.75
2019-05-25T10:37:40.092Z,99426.17
2019-05-25T10:40:13.093Z,99428.75
2019-05-25T10:42:46.318Z,99419.02
2019-05-25T10:45:19.692Z,99421.30
2019-05-25T10:47:52.982Z,99431.27
2019-05-25T10:50:26.599Z,99425.20
2019-05-25T10:52:59.656Z,99429.49
2019-05-25T10:55:33.934Z,99426.70
2019-05-25T10:58:08.306Z,99438.73
2019-05-25T11:00:41.408Z,99440.05
2019-05-25T11:03:14.514Z,99437.87
2019-05-25T11:05:47.558Z,99428.76
2019-05-25T11:08:20.590Z,99432.53
2019-05-25T11:10:53.659Z,99432.89
2019-05-25T11:13:26.910Z,99431.56
2019-05-25T11:16:00.038Z,99436.14
2019-05-25T11:18:33.114Z,99431.53
2019-05-25T11:21:06.403Z,99433.72
2019-05-25T11:23:41.002Z,99445.36
2019-05-25T11:26:14.352Z,99440.99
2019-05-25T11:28:50.509Z,99442.81
2019-05-25T11:31:23.829Z,99442.33
2019-05-25T11:33:58.501Z,99434.70
2019-05-25T11:36:32.247Z,99439.80
2019-05-25T11:39:07.023Z,99440.24
2019-05-25T11:41:40.031Z,99432.37
2019-05-25T11:44:13.089Z,99427.48
2019-05-25T11:46:46.124Z,99433.92
2019-05-25T11:49:22.658Z,99438.84
2019-05-25T11:51:53.832Z,99433.25
2019-05-25T11:54:26.974Z,99430.41
2019-05-25T11:57:00.312Z,99427.08
2019-05-25T11:59:33.794Z,99431.21
2019-05-25T12:02:06.962Z,99424.52
2019-05-25T12:04:41.984Z,99437.00
2019-05-25T12:07:16.692Z,99432.02
2019-05-25T12:09:49.926Z,99427.10
2019-05-25T12:12:23.008Z,99430.80
2019-05-25T12:14:56.147Z,99431.44
2019-05-25T12:17:29.225Z,99438.98
2019-05-25T12:20:02.699Z,99439.03
2019-05-25T12:22:36.145Z,99441.77
2019-05-25T12:25:09.645Z,99437.52
2019-05-25T12:27:42.945Z,99433.06
2019-05-25T12:30:16.349Z,99438.00
2019-05-25T12:32:49.889Z,99445.41
2019-05-25T12:35:23.705Z,99442.13
2019-05-25T12:37:57.011Z,99445.09
2019-05-25T12:40:30.400Z,99445.25
2019-05-25T12:43:03.636Z,99440.76
2019-05-25T12:45:36.788Z,99441.25
2019-05-25T12:48:10.267Z,99444.16
2019-05-25T12:50:43.511Z,99443.42
2019-05-25T12:53:16.746Z,99448.64
2019-05-25T12:55:50.047Z,99447.35
2019-05-25T12:58:23.810Z,99444.42
2019-05-25T13:00:57.308Z,99443.34
2019-05-25T13:03:30.512Z,99439.25
2019-05-25T13:06:03.728Z,99438.81
2019-05-25T13:08:36.962Z,99442.98
2019-05-25T13:11:10.216Z,99435.94
2019-05-25T13:13:43.304Z,99442.83
2019-05-25T13:16:16.475Z,99439.79
2019-05-25T13:18:49.594Z,99438.94
2019-05-25T13:21:22.595Z,99438.94
2019-05-25T13:23:55.829Z,99444.77
2019-05-25T13:26:29.002Z,99442.78
2019-05-25T13:29:02.504Z,99440.76
2019-05-25T13:31:36.008Z,99445.61
2019-05-25T13:34:09.390Z,99450.14
2019-05-25T13:36:42.659Z,99450.05
2019-05-25T13:39:15.889Z,99445.95
2019-05-25T13:41:49.186Z,99454.08
2019-05-25T13:44:22.481Z,99460.78
2019-05-25T13:46:55.550Z,99450.84
2019-05-25T13:49:28.752Z,99454.93
2019-05-25T13:52:01.935Z,99456.29
2019-05-25T13:54:35.475Z,99459.06
2019-05-25T13:57:08.774Z,99470.96
2019-05-25T13:59:42.003Z,99464.78
2019-05-25T14:02:15.186Z,99462.12
2019-05-25T14:04:48.345Z,99469.14
2019-05-25T14:07:21.348Z,99476.91
2019-05-25T14:09:54.471Z,99478.80
2019-05-25T14:12:27.491Z,99468.16
2019-05-25T14:15:00.649Z,99475.27
2019-05-25T14:17:33.643Z,99472.87
2019-05-25T14:20:07.273Z,99473.69
2019-05-25T14:22:40.379Z,99474.28
2019-05-25T14:25:13.740Z,99476.84
2019-05-25T14:27:50.620Z,99477.26
2019-05-25T14:30:23.972Z,99484.88
2019-05-25T14:32:57.142Z,99479.55
2019-05-25T14:35:30.472Z,99476.15
2019-05-25T14:38:03.730Z,99468.64
2019-05-25T14:40:36.964Z,99464.50
2019-05-25T14:43:10.134Z,99470.53
2019-05-25T14:45:43.194Z,99471.27
2019-05-25T14:48:16.316Z,99480.55
2019-05-25T14:50:49.310Z,99470.63
2019-05-25T14:53:22.456Z,99478.41
2019-05-25T14:55:55.468Z,99473.30
2019-05-25T14:58:28.546Z,99475.96
2019-05-25T15:01:01.592Z,99478.89
2019-05-25T15:03:34.691Z,99472.70
2019-05-25T15:06:08.068Z,99472.70
2019-05-25T15:08:41.146Z,99471.38
2019-05-25T15:11:14.166Z,99482.99
2019-05-25T15:13:47.392Z,99475.00
2019-05-25T15:16:20.544Z,99480.59
2019-05-25T15:18:53.762Z,99474.56
2019-05-25T15:21:27.045Z,99479.15
2019-05-25T15:24:00.246Z,99476.48
2019-05-25T15:26:33.290Z,99476.86
2019-05-25T15:29:06.378Z,99474.67
2019-05-25T15:31:39.384Z,99468.49
2019-05-25T15:34:12.448Z,99470.08
2019-05-25T15:36:48.367Z,99476.45
2019-05-25T15:39:21.430Z,99474.36
2019-05-25T15:41:54.584Z,99478.53
2019-05-25T15:44:27.732Z,99481.78
2019-05-25T15:47:04.516Z,99476.67
2019-05-25T15:49:35.524Z,99474.33
2019-05-25T15:52:08.665Z,99470.80
2019-05-25T15:54:41.780Z,99480.38
2019-05-25T15:57:14.884Z,99475.64
2019-05-25T15:59:48.241Z,99476.86
2019-05-25T16:02:35.747Z,99473.89
2019-05-25T16:04:56.057Z,99474.55
2019-05-25T16:07:29.864Z,99473.75
2019-05-25T16:10:03.170Z,99475.50
2019-05-25T16:12:36.225Z,99469.04
2019-05-25T16:15:09.609Z,99479.01
2019-05-25T16:17:42.915Z,99470.86
2019-05-25T16:20:17.488Z,99476.39
2019-05-25T16:22:50.637Z,99478.86
2019-05-25T16:25:23.711Z,99479.64
2019-05-25T16:27:56.894Z,99475.25
2019-05-25T16:30:31.518Z,99477.70
2019-05-25T16:35:39.638Z,99490.56
2019-05-25T16:38:12.922Z,99482.05
2019-05-25T16:38:21.051Z,99480.05
2019-05-25T16:40:46.271Z,99477.73
2019-05-25T16:43:19.408Z,99480.84
2019-05-25T16:45:52.578Z,99485.83
2019-05-25T16:48:25.668Z,99489.06
2019-05-25T16:50:59.243Z,99485.47
2019-05-25T16:53:32.392Z,99485.29
2019-05-25T16:56:05.570Z,99487.56
2019-05-25T16:58:38.724Z,99478.95
2019-05-25T17:01:12.041Z,99481.70
2019-05-25T17:03:45.420Z,99475.72
2019-05-25T17:06:18.621Z,99478.75
2019-05-25T17:08:51.715Z,99469.27
2019-05-25T17:11:24.843Z,99477.51
2019-05-25T17:13:58.080Z,99473.91
2019-05-25T17:16:31.580Z,99474.97
2019-05-25T17:19:04.820Z,99472.31
2019-05-25T17:21:38.038Z,99469.61
2019-05-25T17:24:11.379Z,99475.02
2019-05-25T17:26:44.673Z,99468.28
2019-05-25T17:29:17.853Z,99465.34
2019-05-25T17:31:51.085Z,99468.00
2019-05-25T17:34:24.268Z,99468.89
2019-05-25T17:36:57.406Z,99465.86
2019-05-25T17:39:30.666Z,99466.05
2019-05-25T17:42:04.445Z,99459.14
2019-05-25T17:44:37.586Z,99461.89
2019-05-25T17:47:10.798Z,99451.66
2019-05-25T17:49:44.299Z,99456.59
2019-05-25T17:52:17.490Z,99456.72
2019-05-25T17:54:50.771Z,99454.73
2019-05-25T17:57:24.202Z,99459.28
2019-05-25T17:59:59.479Z,99453.78
2019-05-25T18:02:32.178Z,99459.56
2019-05-25T18:05:06.466Z,99453.91
2019-05-25T18:07:39.684Z,99447.48
2019-05-25T18:10:13.146Z,99440.12
2019-05-25T18:12:47.274Z,99448.97
2019-05-25T18:15:21.162Z,99448.78
2019-05-25T18:17:54.403Z,99449.19
2019-05-25T18:20:28.010Z,99456.38
2019-05-25T18:23:01.386Z,99456.19
2019-05-25T18:25:35.240Z,99454.13
2019-05-25T18:28:09.734Z,99448.92
2019-05-25T18:30:43.062Z,99448.06
2019-05-25T18:33:16.248Z,99449.39
2019-05-25T18:35:49.420Z,99437.84
2019-05-25T18:38:22.585Z,99445.03
2019-05-25T18:40:57.176Z,99450.34
2019-05-25T18:43:30.324Z,99446.48
2019-05-25T18:46:04.031Z,99445.27
2019-05-25T18:48:37.136Z,99444.50
2019-05-25T18:51:10.958Z,99456.80
2019-05-25T18:53:44.290Z,99443.56
2019-05-25T18:56:17.559Z,99455.10
2019-05-25T18:58:51.095Z,99450.55
2019-05-25T19:01:24.262Z,99452.23
2019-05-25T19:03:57.817Z,99454.33
2019-05-25T19:06:31.662Z,99450.62
2019-05-25T19:09:06.477Z,99454.25
2019-05-25T19:11:40.047Z,99463.39
2019-05-25T19:14:14.195Z,99460.36
2019-05-25T19:16:47.438Z,99456.22
2019-05-25T19:19:22.584Z,99463.59
2019-05-25T19:21:56.993Z,99458.88
2019-05-25T19:24:30.158Z,99456.80
2019-05-25T19:27:03.309Z,99455.56
2019-05-25T19:29:36.359Z,99448.91
2019-05-25T19:32:09.456Z,99446.00
2019-05-25T19:34:58.132Z,99446.95
2019-05-25T19:37:19.124Z,99445.42
2019-05-25T19:39:51.983Z,99448.84
2019-05-25T19:42:25.281Z,99442.75
2019-05-25T19:44:58.392Z,99443.13
2019-05-25T19:47:31.650Z,99445.19
2019-05-25T19:50:08.172Z,99441.21
2019-05-25T19:52:41.356Z,99436.01
2019-05-25T19:55:14.537Z,99438.74
2019-05-25T19:57:47.657Z,99442.33
2019-05-25T20:00:20.994Z,99440.66
2019-05-25T20:02:54.499Z,99438.95
2019-05-25T20:05:27.818Z,99443.27
2019-05-25T20:08:00.897Z,99444.19
2019-05-25T20:10:34.046Z,99448.33
2019-05-25T20:13:07.068Z,99446.23
2019-05-25T20:15:40.407Z,99449.00
2019-05-25T20:18:13.490Z,99443.11
2019-05-25T20:20:46.622Z,99447.34
2019-05-25T20:23:19.830Z,99449.97
2019-05-25T20:25:53.026Z,99450.13
2019-05-25T20:28:26.117Z,99454.77
2019-05-25T20:30:59.146Z,99452.37
2019-05-25T20:33:34.851Z,99453.45
2019-05-25T20:36:06.936Z,99450.75
2019-05-25T20:38:40.055Z,99453.95
2019-05-25T20:41:13.080Z,99450.53
2019-05-25T20:43:46.214Z,99449.67
2019-05-25T20:46:19.298Z,99446.34
2019-05-25T20:48:52.482Z,99449.65
2019-05-25T20:51:25.768Z,99441.11
2019-05-25T20:53:58.958Z,99448.55
2019-05-25T20:56:32.113Z,99447.77
2019-05-25T20:59:06.792Z,99442.56
2019-05-25T21:01:39.948Z,99451.04
2019-05-25T21:04:13.166Z,99449.06
2019-05-25T21:06:46.274Z,99447.89
2019-05-25T21:09:19.722Z,99448.05
2019-05-25T21:11:55.851Z,99445.03
2019-05-25T21:14:27.970Z,99439.47
2019-05-25T21:17:01.239Z,99441.57
2019-05-25T21:19:34.601Z,99437.03
2019-05-25T21:22:07.711Z,99431.13
2019-05-25T21:24:41.012Z,99437.50
2019-05-25T21:27:14.188Z,99439.86
2019-05-25T21:29:47.234Z,99436.75
2019-05-25T21:32:20.274Z,99437.84
2019-05-25T21:34:53.618Z,99434.97
2019-05-25T21:37:26.659Z,99441.19
2019-05-25T21:39:59.746Z,99437.48
2019-05-25T21:42:32.838Z,99438.89
2019-05-25T21:45:06.591Z,99438.50
2019-05-25T21:47:39.874Z,99439.43
2019-05-25T21:50:13.201Z,99435.08
2019-05-25T21:52:46.298Z,99438.66
2019-05-25T21:55:19.464Z,99436.20
2019-05-25T21:57:52.748Z,99444.20
2019-05-25T22:00:27.762Z,99436.43
2019-05-25T22:03:01.046Z,99436.58
2019-05-25T22:05:34.218Z,99435.06
2019-05-25T22:08:07.207Z,99431.56
2019-05-25T22:10:40.308Z,99428.15
2019-05-25T22:13:25.328Z,99427.37
2019-05-25T22:15:48.228Z,99426.20
2019-05-25T22:18:21.363Z,99424.68
2019-05-25T22:20:55.956Z,99419.55
2019-05-25T22:23:29.178Z,99420.48
2019-05-25T22:26:02.279Z,99420.63
2019-05-25T22:28:44.206Z,99418.92
2019-05-25T22:31:10.379Z,99417.02
2019-05-25T22:33:43.490Z,99417.94
2019-05-25T22:36:16.595Z,99411.81
2019-05-25T22:38:49.923Z,99414.91
2019-05-25T22:41:23.154Z,99413.67
2019-05-25T22:43:56.254Z,99412.03
2019-05-25T22:46:29.456Z,99414.08
2019-05-25T22:49:02.749Z,99407.63
2019-05-25T22:51:35.870Z,99407.31
2019-05-25T22:54:09.035Z,99407.78
2019-05-25T22:56:42.327Z,99393.84
2019-05-25T22:59:15.942Z,99394.92
2019-05-25T23:01:49.202Z,99389.80
2019-05-25T23:04:22.392Z,99382.39
2019-05-25T23:06:58.098Z,99389.55
2019-05-25T23:09:30.260Z,99386.53
2019-05-25T23:12:03.313Z,99385.35
2019-05-25T23:14:36.571Z,99381.08
2019-05-25T23:17:09.668Z,99380.88
2019-05-25T23:19:42.812Z,99382.27
2019-05-25T23:22:15.988Z,99377.14
2019-05-25T23:24:49.485Z,99381.16
2019-05-25T23:27:22.768Z,99375.50
2019-05-25T23:29:55.913Z,99377.75
2019-05-25T23:32:29.078Z,99375.58
2019-05-25T23:35:02.230Z,99373.87
2019-05-25T23:37:35.378Z,99368.59
2019-05-25T23:40:08.986Z,99366.92
2019-05-25T23:42:42.189Z,99366.92
2019-05-25T23:45:16.090Z,99361.08
2019-05-25T23:47:49.626Z,99361.00
2019-05-25T23:50:22.801Z,99361.47
2019-05-25T23:52:56.160Z,99363.17
2019-05-25T23:55:29.376Z,99365.95
2019-05-25T23:58:02.602Z,99360.69
